Time;durP1;ratioP1;P1;durP2;ratioP2;P2;SDS_P1;SDS_P2;PMS_P1;PMS_P2;Temp;Humidity;BMP_temperature;BMP_pressure;BME280_temperature;BME280_humidity;BME280_pressure;Samples;Min_cycle;Max_cycle;Signal;HPM_P1;HPM_P2
2022/07/28 00:02:01;;;;;;;2.85;1.40;;;;;;;16.71;94.99;96202.00;5023775;28;20036;-76
2022/07/28 00:04:26;;;;;;;6.57;1.70;;;;;;;16.66;94.57;96196.44;5028336;28;20570;-76
2022/07/28 00:06:52;;;;;;;5.60;1.75;;;;;;;16.60;95.11;96202.56;5027649;28;20118;-76
2022/07/28 00:09:18;;;;;;;4.20;1.67;;;;;;;16.53;95.76;96206.19;5036083;28;20029;-76
2022/07/28 00:11:43;;;;;;;5.93;2.03;;;;;;;16.68;95.18;96207.69;5016996;28;20068;-75
2022/07/28 00:14:09;;;;;;;5.75;1.75;;;;;;;16.60;95.47;96204.38;5025658;28;20036;-74
2022/07/28 00:16:35;;;;;;;5.75;2.08;;;;;;;16.66;94.96;96204.41;5045398;28;20025;-76
2022/07/28 00:19:01;;;;;;;4.95;2.05;;;;;;;16.63;94.74;96201.31;5045416;28;20025;-75
2022/07/28 00:21:27;;;;;;;5.13;2.40;;;;;;;16.65;94.92;96202.78;5028805;28;20032;-75
2022/07/28 00:23:53;;;;;;;5.32;2.10;;;;;;;16.56;95.24;96201.31;5031635;28;20033;-74
2022/07/28 00:26:18;;;;;;;4.07;2.30;;;;;;;16.56;95.40;96201.31;5031184;28;20048;-75
2022/07/28 00:28:44;;;;;;;4.78;1.98;;;;;;;16.53;96.54;96203.53;5049974;28;20508;-76
2022/07/28 00:31:10;;;;;;;7.57;2.03;;;;;;;16.54;96.18;96202.53;5028816;28;20037;-76
2022/07/28 00:33:35;;;;;;;6.05;2.10;;;;;;;16.47;96.96;96203.31;5027045;28;20086;-75
2022/07/28 00:36:01;;;;;;;5.05;2.05;;;;;;;16.36;97.12;96200.38;5039413;28;20104;-76
2022/07/28 00:38:27;;;;;;;6.28;1.90;;;;;;;16.32;97.35;96199.97;5028475;28;20048;-75
2022/07/28 00:41:11;;;;;;;3.58;1.30;;;;;;;16.01;100.00;96184.47;5042259;28;20033;-76
2022/07/28 00:43:47;;;;;;;7.53;2.33;;;;;;;15.92;100.00;96188.28;5031522;28;20025;-76
2022/07/28 00:46:14;;;;;;;3.45;1.92;;;;;;;15.99;100.00;96192.63;5007015;28;20036;-76
2022/07/28 00:48:45;;;;;;;6.53;2.37;;;;;;;16.16;98.87;96189.66;5044565;28;20323;-75
2022/07/28 00:51:13;;;;;;;5.90;2.40;;;;;;;15.99;100.00;96184.66;5045817;28;20045;-76
2022/07/28 00:53:39;;;;;;;7.43;2.45;;;;;;;15.95;100.00;96187.91;5046605;28;20024;-75
2022/07/28 00:56:05;;;;;;;7.50;2.47;;;;;;;15.99;100.00;96174.03;5048627;28;20512;-75
2022/07/28 00:58:31;;;;;;;8.13;2.43;;;;;;;15.97;100.00;96184.03;5028464;28;20123;-74
2022/07/28 01:00:57;;;;;;;3.80;1.80;;;;;;;15.91;100.00;96176.03;5021632;28;20120;-74
2022/07/28 01:03:23;;;;;;;3.60;1.88;;;;;;;15.74;100.00;96181.63;5039964;28;20397;-75
2022/07/28 01:06:15;;;;;;;6.55;2.10;;;;;;;15.86;100.00;96173.13;5027186;28;20032;-76
2022/07/28 01:08:47;;;;;;;5.83;1.87;;;;;;;15.78;100.00;96169.63;4990805;28;20834;-75
2022/07/28 01:11:30;;;;;;;3.45;1.80;;;;;;;15.82;100.00;96172.72;5030329;28;20039;-76
2022/07/28 01:14:16;;;;;;;4.37;1.90;;;;;;;15.71;100.00;96168.75;5018634;28;20494;-75
2022/07/28 01:16:48;;;;;;;6.57;2.47;;;;;;;15.79;100.00;96165.13;5021248;28;20033;-76
2022/07/28 01:19:47;;;;;;;5.95;2.30;;;;;;;15.75;100.00;96162.06;5047787;28;20040;-76
2022/07/28 01:22:19;;;;;;;4.60;1.90;;;;;;;15.65;100.00;96161.53;5056213;28;20468;-76
2022/07/28 01:25:15;;;;;;;4.60;1.97;;;;;;;15.63;100.00;96155.63;5031463;28;20083;-76
2022/07/28 01:27:46;;;;;;;4.27;1.97;;;;;;;15.72;100.00;96146.53;5030031;28;20032;-76
2022/07/28 01:30:24;;;;;;;5.30;2.10;;;;;;;15.54;100.00;96151.47;5023351;28;20551;-75
2022/07/28 01:33:02;;;;;;;5.93;2.40;;;;;;;15.43;100.00;96142.22;5031244;28;20041;-76
2022/07/28 01:35:36;;;;;;;10.73;3.10;;;;;;;15.53;100.00;96148.00;5013169;28;20127;-73
2022/07/28 01:38:06;;;;;;;6.00;2.63;;;;;;;15.57;100.00;96143.16;5052373;28;20548;-76
2022/07/28 01:40:34;;;;;;;5.10;2.17;;;;;;;15.57;100.00;96143.97;5049897;28;20044;-76
2022/07/28 01:43:04;;;;;;;6.27;2.27;;;;;;;15.42;100.00;96145.06;5053960;28;20116;-75
2022/07/28 01:45:32;;;;;;;6.03;2.20;;;;;;;15.45;100.00;96144.66;5048109;28;20040;-76
2022/07/28 01:47:59;;;;;;;6.20;2.37;;;;;;;15.29;100.00;96129.84;5049301;28;20025;-76
2022/07/28 01:50:27;;;;;;;6.93;2.07;;;;;;;15.29;100.00;96124.56;5030743;28;20056;-76
2022/07/28 01:52:54;;;;;;;5.53;2.20;;;;;;;15.31;100.00;96128.66;5039023;28;20527;-76
2022/07/28 01:55:22;;;;;;;4.33;2.13;;;;;;;15.15;100.00;96125.47;5017757;28;20051;-74
2022/07/28 01:57:50;;;;;;;4.77;2.20;;;;;;;15.20;100.00;96123.88;5048897;28;20029;-76
2022/07/28 02:00:16;;;;;;;9.77;2.30;;;;;;;15.31;100.00;96131.31;5048264;28;20028;-76
2022/07/28 02:02:44;;;;;;;6.33;2.40;;;;;;;15.33;100.00;96129.31;5034082;28;20512;-75
2022/07/28 02:05:13;;;;;;;6.03;1.93;;;;;;;15.36;100.00;96135.22;5057340;28;20473;-76
2022/07/28 02:07:41;;;;;;;5.80;2.53;;;;;;;15.34;100.00;96135.41;5050971;28;20033;-76
2022/07/28 02:10:10;;;;;;;5.70;2.50;;;;;;;15.36;100.00;96124.63;5036466;28;20399;-76
2022/07/28 02:12:38;;;;;;;3.97;2.07;;;;;;;15.33;100.00;96121.34;5037266;28;20128;-76
2022/07/28 02:15:08;;;;;;;5.07;2.17;;;;;;;15.13;100.00;96123.03;5033406;28;20086;-76
2022/07/28 02:17:35;;;;;;;9.93;2.20;;;;;;;15.09;100.00;96124.41;5032851;28;20390;-76
2022/07/28 02:20:04;;;;;;;7.43;2.30;;;;;;;15.07;100.00;96123.78;5014375;28;20048;-75
2022/07/28 02:22:31;;;;;;;4.97;2.10;;;;;;;15.11;100.00;96117.06;5058456;28;20025;-76
2022/07/28 02:24:58;;;;;;;9.43;2.43;;;;;;;15.00;100.00;96112.31;5037707;28;20021;-76
2022/07/28 02:27:30;;;;;;;4.63;2.40;;;;;;;14.92;100.00;96107.94;5049337;28;20032;-75
2022/07/28 02:30:08;;;;;;;9.23;2.80;;;;;;;14.81;100.00;96116.38;5051338;28;20032;-76
2022/07/28 02:32:55;;;;;;;5.03;2.37;;;;;;;14.89;100.00;96112.78;5050869;28;20086;-74
2022/07/28 02:35:30;;;;;;;3.47;1.97;;;;;;;14.82;100.00;96110.91;5049746;28;20036;-75
2022/07/28 02:38:09;;;;;;;5.57;2.50;;;;;;;14.79;100.00;96102.53;5044276;28;20033;-75
2022/07/28 02:40:37;;;;;;;5.80;2.40;;;;;;;14.85;100.00;96102.59;5042867;28;20040;-74
2022/07/28 02:43:07;;;;;;;7.17;2.27;;;;;;;14.93;100.00;96101.66;5032820;28;20032;-75
2022/07/28 02:45:37;;;;;;;7.60;2.57;;;;;;;14.84;100.00;96102.78;5047430;28;20029;-74
2022/07/28 02:48:09;;;;;;;8.13;2.80;;;;;;;14.78;100.00;96112.28;5033039;28;20498;-76
2022/07/28 02:50:35;;;;;;;5.87;2.60;;;;;;;14.84;100.00;96100.13;5043342;28;20041;-74
2022/07/28 02:53:02;;;;;;;3.77;2.00;;;;;;;14.82;100.00;96102.97;5050317;28;20879;-76
2022/07/28 02:55:30;;;;;;;8.50;2.50;;;;;;;14.59;100.00;96107.63;5040713;28;20040;-75
2022/07/28 02:57:57;;;;;;;6.00;2.50;;;;;;;14.66;100.00;96100.56;5037015;28;20089;-76
2022/07/28 03:00:24;;;;;;;6.40;2.50;;;;;;;14.68;100.00;96101.19;5048796;28;20077;-76
2022/07/28 03:02:51;;;;;;;5.50;2.33;;;;;;;14.64;100.00;96099.13;5033624;28;20242;-76
2022/07/28 03:05:17;;;;;;;6.53;2.60;;;;;;;14.68;100.00;96103.84;5054234;28;20029;-75
2022/07/28 03:07:44;;;;;;;13.33;8.57;;;;;;;14.56;100.00;96105.34;5041678;28;20043;-76
2022/07/28 03:10:21;;;;;;;13.00;8.33;;;;;;;14.57;100.00;96109.63;5031257;28;20060;-76
2022/07/28 03:12:47;;;;;;;6.20;2.60;;;;;;;14.48;100.00;96110.72;5025484;28;20397;-76
2022/07/28 03:15:14;;;;;;;11.73;2.97;;;;;;;14.35;100.00;96119.31;5037631;28;20017;-76
2022/07/28 03:17:40;;;;;;;7.70;3.10;;;;;;;14.49;100.00;96112.38;5052890;28;20035;-75
2022/07/28 03:20:06;;;;;;;6.07;2.80;;;;;;;14.40;100.00;96111.66;5030903;28;20033;-76
2022/07/28 03:22:32;;;;;;;7.83;2.60;;;;;;;14.36;100.00;96124.44;5032793;28;20087;-75
2022/07/28 03:24:59;;;;;;;5.30;2.40;;;;;;;14.34;100.00;96123.78;5031849;28;20024;-73
2022/07/28 03:27:31;;;;;;;4.97;2.60;;;;;;;14.37;100.00;96123.41;5047655;28;20116;-75
2022/07/28 03:30:01;;;;;;;5.77;2.80;;;;;;;14.30;100.00;96127.81;5035069;28;20495;-76
2022/07/28 03:32:30;;;;;;;7.57;3.20;;;;;;;14.34;100.00;96131.72;5045607;28;20458;-75
2022/07/28 03:34:56;;;;;;;6.37;2.90;;;;;;;14.36;100.00;96134.19;5026617;28;20478;-76
2022/07/28 03:37:38;;;;;;;5.80;2.70;;;;;;;14.27;100.00;96130.81;5047194;28;20025;-75
2022/07/28 03:40:08;;;;;;;6.63;2.90;;;;;;;14.27;100.00;96138.75;5030349;28;20028;-75
2022/07/28 03:42:35;;;;;;;4.17;2.60;;;;;;;14.11;100.00;96136.31;5027706;28;20025;-75
2022/07/28 03:45:01;;;;;;;11.23;3.50;;;;;;;14.09;100.00;96138.34;5042639;28;20089;-76
2022/07/28 03:47:26;;;;;;;10.93;5.33;;;;;;;14.16;100.00;96139.22;5017293;28;20033;-75
2022/07/28 03:49:52;;;;;;;8.07;4.83;;;;;;;14.13;100.00;96129.84;5009327;28;20520;-76
2022/07/28 03:52:18;;;;;;;6.77;3.23;;;;;;;14.10;100.00;96129.38;5017540;28;20041;-75
2022/07/28 03:54:44;;;;;;;6.10;2.93;;;;;;;14.11;100.00;96133.66;5054617;28;20043;-75
2022/07/28 03:57:10;;;;;;;5.70;2.83;;;;;;;14.11;100.00;96138.94;5049393;28;20042;-75
2022/07/28 03:59:36;;;;;;;4.47;3.00;;;;;;;14.04;100.00;96140.69;5014864;28;20022;-75
2022/07/28 04:02:02;;;;;;;6.27;3.00;;;;;;;14.04;100.00;96130.94;5031889;28;20548;-75
2022/07/28 04:04:28;;;;;;;6.37;2.93;;;;;;;14.04;100.00;96135.41;5027071;28;20040;-75
2022/07/28 04:06:54;;;;;;;8.97;2.87;;;;;;;14.06;100.00;96139.50;5041598;28;20040;-75
2022/07/28 04:09:19;;;;;;;10.47;3.00;;;;;;;14.12;100.00;96137.97;5031760;28;20033;-76
2022/07/28 04:11:45;;;;;;;13.43;8.83;;;;;;;14.09;100.00;96138.34;5044128;28;20024;-75
2022/07/28 04:14:16;;;;;;;5.60;3.50;;;;;;;14.05;100.00;96132.59;5008574;28;20124;-75
2022/07/28 04:16:44;;;;;;;7.57;3.30;;;;;;;13.94;100.00;96138.31;5013659;28;20120;-77
2022/07/28 04:19:10;;;;;;;8.57;3.67;;;;;;;13.94;100.00;96134.84;5023861;28;20041;-76
2022/07/28 04:21:36;;;;;;;6.23;3.00;;;;;;;13.99;100.00;96138.59;5019884;28;20037;-76
2022/07/28 04:24:01;;;;;;;6.60;3.23;;;;;;;14.06;100.00;96133.41;5042780;28;20079;-75
2022/07/28 04:26:27;;;;;;;7.13;3.60;;;;;;;13.94;100.00;96145.44;5023097;28;20043;-76
2022/07/28 04:28:53;;;;;;;7.33;3.53;;;;;;;14.10;100.00;96145.25;5049546;28;20522;-74
2022/07/28 04:31:18;;;;;;;9.37;5.90;;;;;;;14.02;100.00;96140.06;5030787;28;20627;-74
2022/07/28 04:33:45;;;;;;;10.70;4.27;;;;;;;14.27;100.00;96136.09;5019416;28;20850;-75
2022/07/28 04:36:11;;;;;;;6.00;3.40;;;;;;;14.38;100.00;96138.31;5041267;28;20655;-76
2022/07/28 04:38:38;;;;;;;9.23;3.33;;;;;;;14.35;100.00;96141.31;5041540;28;20045;-75
2022/07/28 04:41:03;;;;;;;7.20;3.17;;;;;;;14.52;100.00;96134.00;5040171;28;20082;-75
2022/07/28 04:43:29;;;;;;;8.50;3.40;;;;;;;14.63;100.00;96129.25;5025648;28;20029;-76
2022/07/28 04:45:55;;;;;;;7.13;3.13;;;;;;;14.81;100.00;96132.28;5051208;28;20091;-75
2022/07/28 04:48:22;;;;;;;5.27;3.00;;;;;;;14.83;100.00;96136.38;5046261;28;20044;-76
2022/07/28 04:50:49;;;;;;;6.40;3.30;;;;;;;14.93;100.00;96132.59;5028579;28;20033;-74
2022/07/28 04:53:17;;;;;;;6.27;3.50;;;;;;;14.98;100.00;96138.16;5022065;28;20033;-75
2022/07/28 04:55:45;;;;;;;8.80;3.50;;;;;;;14.81;100.00;96134.91;5054294;28;20025;-76
2022/07/28 04:58:17;;;;;;;6.03;2.90;;;;;;;14.93;100.00;96138.72;5044831;28;20031;-75
2022/07/28 05:00:44;;;;;;;12.20;3.60;;;;;;;15.10;100.00;96136.63;5042255;28;20044;-75
2022/07/28 05:03:09;;;;;;;6.43;2.93;;;;;;;15.10;100.00;96141.94;5046260;28;20025;-76
2022/07/28 05:05:35;;;;;;;8.57;3.13;;;;;;;15.18;100.00;96133.03;5016114;28;20522;-74
2022/07/28 05:08:01;;;;;;;5.97;3.30;;;;;;;15.40;100.00;96131.19;5044503;28;20390;-74
2022/07/28 05:10:26;;;;;;;4.17;2.60;;;;;;;15.57;100.00;96128.06;5050216;28;20041;-75
2022/07/28 05:12:53;;;;;;;7.67;2.93;;;;;;;15.51;100.00;96126.16;5021478;28;20174;-75
2022/07/28 05:15:19;;;;;;;6.00;3.10;;;;;;;15.59;100.00;96135.00;5040622;28;20031;-75
2022/07/28 05:17:46;;;;;;;4.80;2.80;;;;;;;15.42;100.00;96134.44;5042911;28;20025;-75
2022/07/28 05:20:12;;;;;;;7.07;3.10;;;;;;;15.30;100.00;96132.34;5033973;28;20535;-74
2022/07/28 05:22:46;;;;;;;7.00;3.57;;;;;;;15.35;100.00;96137.03;5026742;28;20036;-74
2022/07/28 05:25:17;;;;;;;7.30;3.53;;;;;;;15.44;100.00;96135.09;5033176;28;20028;-74
2022/07/28 05:27:44;;;;;;;6.67;3.37;;;;;;;15.60;100.00;96131.34;5031028;28;20920;-74
2022/07/28 05:30:10;;;;;;;8.57;4.07;;;;;;;15.72;100.00;96141.22;5045232;28;20079;-74
2022/07/28 05:32:36;;;;;;;6.40;3.83;;;;;;;16.01;100.00;96126.94;5057358;28;20383;-74
2022/07/28 05:35:03;;;;;;;5.43;3.10;;;;;;;16.17;100.00;96131.09;5043897;28;20075;-74
2022/07/28 05:37:32;;;;;;;8.23;3.30;;;;;;;16.21;100.00;96140.31;5050469;28;20029;-74
2022/07/28 05:39:58;;;;;;;7.03;3.10;;;;;;;16.69;100.00;96142.94;5056404;28;20029;-74
2022/07/28 05:42:25;;;;;;;5.67;3.20;;;;;;;16.47;100.00;96142.28;5028885;28;20032;-74
2022/07/28 05:44:50;;;;;;;7.73;3.50;;;;;;;16.48;100.00;96145.72;5046150;28;20399;-74
2022/07/28 05:47:16;;;;;;;9.10;3.87;;;;;;;16.64;100.00;96139.25;5053243;28;20025;-74
2022/07/28 05:49:42;;;;;;;9.77;3.73;;;;;;;16.82;100.00;96141.38;5025342;28;20032;-74
2022/07/28 05:52:07;;;;;;;9.07;3.57;;;;;;;16.85;100.00;96143.63;5029832;28;20107;-74
2022/07/28 05:54:33;;;;;;;6.72;3.30;;;;;;;17.50;100.00;96135.94;5043419;28;20037;-75
2022/07/28 05:56:59;;;;;;;5.75;3.30;;;;;;;17.70;100.00;96144.72;5029872;28;20398;-75
2022/07/28 05:59:24;;;;;;;9.13;3.00;;;;;;;18.04;100.00;96133.06;5045283;28;20033;-74
2022/07/28 06:01:50;;;;;;;6.28;3.55;;;;;;;18.02;100.00;96135.09;5040993;28;20426;-75
2022/07/28 06:04:16;;;;;;;10.40;3.67;;;;;;;17.83;100.00;96138.59;5045241;28;20037;-75
2022/07/28 06:06:41;;;;;;;5.38;3.60;;;;;;;17.77;100.00;96131.44;5042489;28;20033;-75
2022/07/28 06:09:07;;;;;;;9.35;4.20;;;;;;;18.26;100.00;96132.78;5030513;28;20168;-75
2022/07/28 06:11:33;;;;;;;7.70;3.90;;;;;;;18.20;100.00;96131.75;5035915;28;20044;-74
2022/07/28 06:13:58;;;;;;;7.38;4.22;;;;;;;18.84;98.50;96136.22;5047485;28;20777;-75
2022/07/28 06:16:24;;;;;;;6.28;3.55;;;;;;;18.88;98.76;96122.47;5045349;28;20438;-75
2022/07/28 06:18:50;;;;;;;7.47;3.50;;;;;;;18.42;100.00;96132.31;5051404;28;20028;-75
2022/07/28 06:21:16;;;;;;;11.68;4.28;;;;;;;18.91;99.76;96122.88;5055989;28;20557;-75
2022/07/28 06:23:41;;;;;;;9.38;4.00;;;;;;;19.63;94.82;96119.91;5010783;28;20032;-75
2022/07/28 06:26:07;;;;;;;5.45;3.30;;;;;;;19.83;93.67;96117.09;5046754;28;20033;-75
2022/07/28 06:28:33;;;;;;;6.03;3.90;;;;;;;19.66;95.08;96128.31;5051224;28;20040;-74
2022/07/28 06:30:59;;;;;;;6.63;3.75;;;;;;;19.52;96.99;96116.09;5054087;28;20033;-75
2022/07/28 06:33:24;;;;;;;6.38;3.70;;;;;;;20.19;92.90;96116.31;5045531;28;20033;-75
2022/07/28 06:35:50;;;;;;;8.32;3.92;;;;;;;20.34;90.59;96119.41;5045642;28;20025;-75
2022/07/28 06:38:16;;;;;;;14.15;6.95;;;;;;;20.72;88.22;96115.66;5049761;28;20071;-76
2022/07/28 06:40:42;;;;;;;13.23;4.55;;;;;;;20.70;88.35;96118.56;5047659;28;20506;-75
2022/07/28 06:43:07;;;;;;;7.90;3.95;;;;;;;20.91;86.50;96119.13;5030896;28;20567;-75
2022/07/28 06:45:33;;;;;;;8.60;4.07;;;;;;;21.07;86.20;96115.81;5028108;28;20041;-75
2022/07/28 06:47:59;;;;;;;6.93;4.22;;;;;;;21.14;85.28;96110.38;5028204;28;20056;-75
2022/07/28 06:50:25;;;;;;;8.48;4.30;;;;;;;21.63;82.18;96111.06;5047342;28;20036;-75
2022/07/28 06:52:50;;;;;;;8.55;4.60;;;;;;;20.81;86.44;96117.00;5048723;28;20119;-75
2022/07/28 06:55:16;;;;;;;9.57;5.00;;;;;;;20.69;89.90;96116.13;5053238;28;20032;-75
2022/07/28 06:57:42;;;;;;;8.30;4.90;;;;;;;21.13;86.74;96122.13;5051376;28;20112;-75
2022/07/28 07:00:11;;;;;;;8.82;4.57;;;;;;;21.68;83.97;96121.88;5038839;28;20155;-75
2022/07/28 07:02:41;;;;;;;7.80;4.72;;;;;;;21.89;81.69;96123.16;5040504;28;20147;-75
2022/07/28 07:05:08;;;;;;;9.90;5.45;;;;;;;21.97;80.04;96116.66;5020878;28;20027;-75
2022/07/28 07:07:37;;;;;;;8.80;4.38;;;;;;;22.07;80.91;96114.19;5041736;28;20048;-75
2022/07/28 07:10:05;;;;;;;9.93;5.07;;;;;;;21.83;82.50;96113.38;5031123;28;20508;-75
2022/07/28 07:12:35;;;;;;;8.85;5.05;;;;;;;22.73;77.18;96106.72;5023002;28;20148;-75
2022/07/28 07:15:01;;;;;;;10.77;4.68;;;;;;;23.95;70.42;96097.28;5030351;28;20041;-75
2022/07/28 07:17:27;;;;;;;7.88;4.68;;;;;;;24.67;65.31;96097.13;5032379;28;20086;-75
2022/07/28 07:19:53;;;;;;;9.35;5.00;;;;;;;22.52;77.90;96097.47;5049179;28;20566;-75
2022/07/28 07:22:18;;;;;;;8.32;5.90;;;;;;;22.44;77.68;96101.34;5043216;28;20032;-75
2022/07/28 07:24:44;;;;;;;10.32;5.55;;;;;;;22.69;75.74;96102.88;5029604;28;20033;-75
2022/07/28 07:27:10;;;;;;;8.52;4.97;;;;;;;22.59;79.69;96103.50;5029274;28;20047;-75
2022/07/28 07:29:36;;;;;;;9.57;5.60;;;;;;;22.51;77.96;96104.69;5030564;28;20029;-76
2022/07/28 07:32:01;;;;;;;9.60;5.70;;;;;;;23.12;74.55;96097.00;5045535;28;20514;-77
2022/07/28 07:34:27;;;;;;;7.18;4.90;;;;;;;23.83;70.74;96096.56;5047375;28;20404;-77
2022/07/28 07:36:53;;;;;;;9.48;5.10;;;;;;;22.75;76.67;96100.06;5029723;28;20490;-76
2022/07/28 07:39:18;;;;;;;6.93;4.85;;;;;;;23.72;71.61;96096.41;5035749;28;20746;-76
2022/07/28 07:41:44;;;;;;;8.20;4.68;;;;;;;23.98;69.52;96094.91;5028151;28;20439;-77
2022/07/28 07:44:10;;;;;;;6.68;4.57;;;;;;;24.49;66.98;96088.59;5029747;28;20044;-77
2022/07/28 07:46:37;;;;;;;10.35;4.88;;;;;;;24.83;64.44;96089.25;5013660;28;20071;-76
2022/07/28 07:49:03;;;;;;;7.93;5.10;;;;;;;24.55;66.32;96083.03;5024766;28;20032;-76
2022/07/28 07:51:28;;;;;;;8.27;4.93;;;;;;;23.88;68.63;96085.91;5041206;28;20037;-74
2022/07/28 07:53:54;;;;;;;9.35;5.35;;;;;;;23.35;73.23;96092.56;5043256;28;20028;-77
2022/07/28 07:56:20;;;;;;;10.30;5.20;;;;;;;23.14;75.59;96094.06;5045813;28;20033;-77
2022/07/28 07:58:45;;;;;;;7.70;4.72;;;;;;;24.20;66.93;96089.56;5008073;28;20434;-77
2022/07/28 08:01:12;;;;;;;10.35;5.10;;;;;;;24.56;66.49;96083.84;5026080;28;20041;-77
2022/07/28 08:03:38;;;;;;;9.65;5.03;;;;;;;23.85;71.25;96092.56;5047160;28;20029;-76
2022/07/28 08:06:03;;;;;;;8.75;5.15;;;;;;;24.55;65.89;96087.59;5044084;28;20029;-77
2022/07/28 08:08:29;;;;;;;8.18;5.43;;;;;;;24.92;64.97;96088.56;5027144;28;20331;-77
2022/07/28 08:10:55;;;;;;;8.77;4.80;;;;;;;24.64;63.79;96096.84;5053615;28;20056;-77
2022/07/28 08:13:21;;;;;;;8.82;5.03;;;;;;;23.98;70.18;96096.78;5049177;28;20025;-77
2022/07/28 08:15:47;;;;;;;9.70;5.18;;;;;;;24.06;66.75;96093.66;5030611;28;20033;-76
2022/07/28 08:18:14;;;;;;;10.52;5.60;;;;;;;24.57;66.50;96090.84;5059017;28;20025;-76
2022/07/28 08:20:40;;;;;;;9.77;5.75;;;;;;;24.98;65.11;96092.09;5026047;28;20033;-76
2022/07/28 08:23:06;;;;;;;6.78;4.18;;;;;;;25.62;60.92;96078.69;5046137;28;20052;-77
2022/07/28 08:25:35;;;;;;;7.72;4.97;;;;;;;25.67;60.85;96093.25;5051286;28;20041;-76
2022/07/28 08:28:02;;;;;;;11.02;4.95;;;;;;;25.85;58.09;96087.47;5029018;28;20049;-74
2022/07/28 08:30:27;;;;;;;9.27;4.65;;;;;;;26.05;59.40;96087.59;5032812;28;20360;-74
2022/07/28 08:32:53;;;;;;;7.20;4.40;;;;;;;24.86;62.29;96089.56;5030225;28;20029;-76
2022/07/28 08:35:18;;;;;;;7.53;4.97;;;;;;;24.53;63.59;96097.78;5029702;28;20021;-75
2022/07/28 08:37:44;;;;;;;7.97;4.88;;;;;;;25.40;61.88;96086.06;5028872;28;20116;-76
2022/07/28 08:40:13;;;;;;;10.98;5.28;;;;;;;25.86;58.44;96097.22;5049631;28;20036;-76
2022/07/28 08:43:01;;;;;;;7.75;4.88;;;;;;;25.88;57.01;96094.25;5015198;28;20360;-76
2022/07/28 08:45:27;;;;;;;8.55;4.78;;;;;;;25.62;56.24;96102.13;5048688;28;20549;-77
2022/07/28 08:47:56;;;;;;;9.48;4.88;;;;;;;25.76;56.70;96100.59;5045047;28;20493;-75
2022/07/28 08:50:23;;;;;;;7.93;4.93;;;;;;;26.44;54.65;96099.94;5053140;28;20422;-76
2022/07/28 08:52:51;;;;;;;8.10;4.38;;;;;;;26.67;53.18;96098.72;5031777;28;20430;-77
2022/07/28 08:55:23;;;;;;;9.90;5.55;;;;;;;27.13;53.14;96093.44;5034978;28;20029;-76
2022/07/28 08:57:49;;;;;;;6.95;4.75;;;;;;;28.18;47.31;96090.19;5036645;28;20033;-75
2022/07/28 09:00:15;;;;;;;6.63;4.25;;;;;;;27.59;50.38;96085.38;5058653;28;20036;-77
2022/07/28 09:02:44;;;;;;;8.75;4.28;;;;;;;28.49;45.86;96082.78;5037589;28;20032;-76
2022/07/28 09:05:10;;;;;;;6.78;4.65;;;;;;;27.69;48.25;96086.16;5053611;28;20517;-76
2022/07/28 09:07:40;;;;;;;8.15;5.07;;;;;;;28.46;45.85;96077.94;5018832;28;20056;-77
2022/07/28 09:10:11;;;;;;;10.63;4.95;;;;;;;27.95;47.51;96086.19;5028393;28;20426;-77
2022/07/28 09:12:39;;;;;;;9.13;4.65;;;;;;;28.52;45.77;96081.44;5052117;28;20520;-76
2022/07/28 09:15:07;;;;;;;7.13;4.20;;;;;;;28.36;46.09;96080.66;5059934;28;20036;-77
2022/07/28 09:17:33;;;;;;;8.88;4.15;;;;;;;27.02;49.37;96076.41;5056900;28;20033;-76
2022/07/28 09:20:00;;;;;;;10.20;4.65;;;;;;;27.70;47.75;96077.00;5032517;28;20035;-77
2022/07/28 09:22:26;;;;;;;7.82;4.50;;;;;;;27.78;48.00;96089.19;5045949;28;20405;-76
2022/07/28 09:24:52;;;;;;;9.82;3.92;;;;;;;27.34;47.79;96073.50;5035333;28;20052;-76
2022/07/28 09:27:18;;;;;;;6.35;3.80;;;;;;;27.85;47.72;96073.50;5043786;28;20050;-76
2022/07/28 09:29:47;;;;;;;8.70;4.63;;;;;;;26.64;49.33;96075.78;5027644;28;20115;-76
2022/07/28 09:32:18;;;;;;;7.28;4.00;;;;;;;27.79;47.31;96063.78;5021449;28;20041;-77
2022/07/28 09:34:46;;;;;;;8.18;4.40;;;;;;;28.53;45.25;96069.53;5024165;28;20036;-76
2022/07/28 09:37:20;;;;;;;6.70;4.32;;;;;;;27.54;46.71;96066.47;5039985;28;20029;-76
2022/07/28 09:39:48;;;;;;;7.97;4.55;;;;;;;28.39;44.25;96062.00;5024774;28;20036;-77
2022/07/28 09:42:14;;;;;;;5.40;3.72;;;;;;;28.17;45.46;96056.94;5023928;28;20059;-76
2022/07/28 09:44:40;;;;;;;6.57;4.15;;;;;;;29.26;42.54;96058.81;5044292;28;20057;-76
2022/07/28 09:47:26;;;;;;;5.70;3.83;;;;;;;30.00;42.33;96061.44;5040238;28;20039;-75
2022/07/28 09:49:52;;;;;;;8.38;3.95;;;;;;;27.06;45.60;96069.38;5026813;28;20111;-76
2022/07/28 09:52:35;;;;;;;6.72;3.50;;;;;;;28.18;45.67;96063.16;5046260;28;20513;-76
2022/07/28 09:55:06;;;;;;;6.53;3.55;;;;;;;28.79;43.35;96057.47;5030958;28;20036;-76
2022/07/28 09:57:34;;;;;;;6.22;3.80;;;;;;;29.43;41.53;96052.19;5046229;28;20807;-77
2022/07/28 10:00:03;;;;;;;8.00;3.47;;;;;;;28.42;42.45;96052.53;5046402;28;20139;-74
2022/07/28 10:02:37;;;;;;;6.63;3.80;;;;;;;29.98;40.32;96045.47;5049972;28;20085;-74
2022/07/28 10:05:05;;;;;;;6.35;3.75;;;;;;;29.28;41.03;96045.81;5023567;28;20215;-74
2022/07/28 10:07:31;;;;;;;9.63;3.53;;;;;;;29.44;39.69;96048.41;5042971;28;20104;-75
2022/07/28 10:10:01;;;;;;;7.22;3.63;;;;;;;28.57;43.16;96040.81;5043890;28;20040;-75
2022/07/28 10:12:32;;;;;;;6.18;3.35;;;;;;;29.35;42.45;96051.72;5039645;28;20033;-74
2022/07/28 10:18:15;;;;;;;6.47;3.88;;;;;;;29.49;39.94;96045.66;5006942;28;20053;-74
2022/07/28 10:20:43;;;;;;;8.65;3.95;;;;;;;29.73;40.03;96048.44;5013321;28;20095;-73
2022/07/28 10:23:12;;;;;;;6.65;3.65;;;;;;;29.95;39.21;96047.97;5023590;28;20116;-75
2022/07/28 10:25:39;;;;;;;5.90;3.50;;;;;;;27.30;44.17;96048.13;5041997;28;20033;-74
2022/07/28 10:28:07;;;;;;;5.45;3.55;;;;;;;27.74;43.56;96040.25;5046626;28;20040;-75
2022/07/28 10:30:39;;;;;;;6.75;3.85;;;;;;;28.00;43.32;96042.09;5047028;28;20037;-75
2022/07/28 10:33:13;;;;;;;6.50;3.60;;;;;;;28.62;41.68;96038.09;5028926;28;20432;-75
2022/07/28 10:35:39;;;;;;;6.03;3.95;;;;;;;28.41;41.82;96032.81;5007969;28;20079;-75
2022/07/28 10:38:11;;;;;;;6.85;3.58;;;;;;;27.94;44.60;96025.09;5045311;28;20029;-74
2022/07/28 10:40:41;;;;;;;8.00;3.72;;;;;;;28.41;42.03;96032.81;5040594;28;20614;-75
2022/07/28 10:43:07;;;;;;;7.13;3.60;;;;;;;29.94;38.84;96027.34;5022895;28;20119;-75
2022/07/28 10:45:38;;;;;;;5.95;3.85;;;;;;;30.47;37.94;96024.59;5047522;28;20039;-76
2022/07/28 10:48:05;;;;;;;7.20;3.38;;;;;;;29.53;38.50;96022.31;5036904;28;20074;-74
2022/07/28 10:50:35;;;;;;;7.80;3.15;;;;;;;29.11;39.07;96029.19;5025180;28;20129;-76
2022/07/28 10:53:08;;;;;;;4.88;3.53;;;;;;;29.47;39.62;96026.16;5026706;28;20044;-79
2022/07/28 10:55:51;;;;;;;5.97;3.45;;;;;;;28.33;41.77;96030.63;5049854;28;20057;-77
2022/07/28 10:58:28;;;;;;;9.90;3.15;;;;;;;28.50;42.07;96024.09;5052032;28;21612;-77
2022/07/28 11:00:54;;;;;;;6.70;3.55;;;;;;;28.77;41.33;96020.97;5009026;28;20120;-75
2022/07/28 11:03:42;;;;;;;6.40;3.00;;;;;;;29.69;39.04;96023.81;5041327;28;20017;-76
2022/07/28 11:06:28;;;;;;;7.10;2.75;;;;;;;30.72;37.36;96018.81;5035225;28;20098;-76
2022/07/28 11:08:59;;;;;;;7.65;3.35;;;;;;;29.08;39.30;96016.19;5043620;28;20483;-75
2022/07/28 11:11:48;;;;;;;6.07;3.08;;;;;;;27.33;43.54;96022.44;5041233;28;20433;-75
2022/07/28 11:14:24;;;;;;;8.05;3.60;;;;;;;26.80;42.88;96015.38;5023783;28;20585;-75
2022/07/28 11:17:02;;;;;;;9.48;3.72;;;;;;;27.03;42.96;96022.16;5020216;28;20029;-76
2022/07/28 11:19:31;;;;;;;7.70;3.55;;;;;;;28.62;39.83;96011.84;5048408;28;20044;-75
2022/07/28 11:22:18;;;;;;;4.18;2.33;;;;;;;29.28;37.77;96007.91;5024309;28;20025;-75
2022/07/28 11:24:55;;;;;;;7.53;3.30;;;;;;;28.51;38.89;96006.78;5008068;28;20075;-76
2022/07/28 11:27:40;;;;;;;4.80;2.72;;;;;;;29.83;37.58;96008.47;5041803;28;20151;-75
2022/07/28 11:30:07;;;;;;;5.72;2.83;;;;;;;30.19;36.33;95999.19;5029833;28;20034;-76
2022/07/28 11:32:54;;;;;;;4.90;3.50;;;;;;;28.93;37.44;96017.06;5025346;28;20545;-77
2022/07/28 11:35:23;;;;;;;6.85;3.20;;;;;;;29.76;36.77;96007.22;5021925;28;20777;-77
2022/07/28 11:38:01;;;;;;;9.50;3.25;;;;;;;28.96;37.58;95994.84;5039619;28;20885;-78
2022/07/28 11:40:39;;;;;;;5.43;3.00;;;;;;;28.77;38.38;96000.16;5042013;28;20402;-75